WZZ55KB EPWA-EETN
Flight info
| Callsign | WZZ55KB |
|---|---|
| Flight time | 1h 40m |
| Altitude | 37000 |
| Route | BAMSO Z182 ASLUX DCT BULEP DCT UNPEG DCT NORNO DCT SUWGI DCT BOKSU DCT GUNTA M857 SOKVA DCT ANAMA DCT KEMET |
| Aircraft | A321/M-SDE1E2E3FGIJ1J4RWXY/LB1 |
Departure
| Time | 2026-05-01 11:42 |
|---|---|
| Airport | Warsaw Chopin Airport (EPWA) |
Arrival
| Time | 2026-05-01 13:23 |
|---|---|
| Airport | Lennart Meri Tallinn Airport (EETN) |
| Time | Latitude | Longitude | Altitude | Speed | Heading |
|---|---|---|---|---|---|
| 2026-05-01 10:57 | 52.17234 | 20.96636 | 335 ft | 0 kts | 207° |
| 2026-05-01 11:35 | 52.17224 | 20.96626 | 339 ft | 4 kts | 213° |
| 2026-05-01 11:35 | 52.17207 | 20.96598 | 334 ft | 4 kts | 232° |
| 2026-05-01 11:36 | 52.17164 | 20.96595 | 334 ft | 12 kts | 156° |
| 2026-05-01 11:36 | 52.17059 | 20.96686 | 336 ft | 22 kts | 152° |
| 2026-05-01 11:36 | 52.16951 | 20.96781 | 337 ft | 12 kts | 152° |
| 2026-05-01 11:36 | 52.16884 | 20.96839 | 334 ft | 10 kts | 152° |
| 2026-05-01 11:37 | 52.16841 | 20.96877 | 336 ft | 11 kts | 152° |
| 2026-05-01 11:37 | 52.16739 | 20.96966 | 336 ft | 22 kts | 152° |
| 2026-05-01 11:37 | 52.16660 | 20.97073 | 336 ft | 15 kts | 116° |
| 2026-05-01 11:37 | 52.16604 | 20.97264 | 337 ft | 22 kts | 115° |
| 2026-05-01 11:38 | 52.16547 | 20.97470 | 338 ft | 13 kts | 114° |
| 2026-05-01 11:38 | 52.16507 | 20.97610 | 333 ft | 14 kts | 115° |
| 2026-05-01 11:38 | 52.16465 | 20.97761 | 336 ft | 14 kts | 114° |
| 2026-05-01 11:38 | 52.16430 | 20.97884 | 335 ft | 13 kts | 114° |
| 2026-05-01 11:39 | 52.16388 | 20.98033 | 338 ft | 16 kts | 114° |
| 2026-05-01 11:39 | 52.16339 | 20.98211 | 337 ft | 18 kts | 115° |
| 2026-05-01 11:39 | 52.16299 | 20.98351 | 334 ft | 12 kts | 115° |
| 2026-05-01 11:39 | 52.16247 | 20.98461 | 339 ft | 13 kts | 162° |
| 2026-05-01 11:40 | 52.16211 | 20.98452 | 339 ft | 0 kts | 199° |
| 2026-05-01 11:40 | 52.16200 | 20.98446 | 338 ft | 5 kts | 200° |
| 2026-05-01 11:40 | 52.16141 | 20.98390 | 334 ft | 14 kts | 229° |
| 2026-05-01 11:41 | 52.16134 | 20.98286 | 336 ft | 8 kts | 290° |
| 2026-05-01 11:41 | 52.16138 | 20.98268 | 335 ft | 0 kts | 294° |
| 2026-05-01 11:41 | 52.16139 | 20.98268 | 335 ft | 0 kts | 294° |
| 2026-05-01 11:42 | 52.16189 | 20.98089 | 337 ft | 55 kts | 295° |
| 2026-05-01 11:42 | 52.16452 | 20.97150 | 336 ft | 125 kts | 294° |
| 2026-05-01 11:42 | 52.16884 | 20.95578 | 483 ft | 165 kts | 298° |
| 2026-05-01 11:42 | 52.17346 | 20.93913 | 1331 ft | 160 kts | 299° |
| 2026-05-01 11:43 | 52.17806 | 20.92281 | 2095 ft | 158 kts | 298° |
| 2026-05-01 11:43 | 52.18334 | 20.90726 | 2721 ft | 156 kts | 315° |
| 2026-05-01 11:43 | 52.19227 | 20.89771 | 3331 ft | 154 kts | 338° |
| 2026-05-01 11:44 | 52.21345 | 20.88247 | 4150 ft | 186 kts | 337° |
| 2026-05-01 11:44 | 52.22456 | 20.86927 | 4409 ft | 211 kts | 316° |
| 2026-05-01 11:44 | 52.23529 | 20.85096 | 4597 ft | 236 kts | 316° |
| 2026-05-01 11:44 | 52.24696 | 20.83090 | 5167 ft | 248 kts | 316° |
| 2026-05-01 11:45 | 52.25934 | 20.81127 | 5989 ft | 248 kts | 326° |
| 2026-05-01 11:45 | 52.27433 | 20.79757 | 6815 ft | 246 kts | 342° |
| 2026-05-01 11:45 | 52.29088 | 20.79103 | 7600 ft | 245 kts | 352° |
| 2026-05-01 11:45 | 52.30772 | 20.78636 | 8399 ft | 246 kts | 358° |
| 2026-05-01 11:46 | 52.32447 | 20.79046 | 9161 ft | 246 kts | 24° |
| 2026-05-01 11:46 | 52.33834 | 20.80689 | 9875 ft | 254 kts | 47° |
| 2026-05-01 11:46 | 52.34624 | 20.83336 | 10435 ft | 270 kts | 75° |
| 2026-05-01 11:46 | 52.34734 | 20.86522 | 10785 ft | 293 kts | 84° |
| 2026-05-01 11:47 | 52.34742 | 20.89982 | 10959 ft | 315 kts | 85° |
| 2026-05-01 11:47 | 52.34722 | 20.93591 | 11416 ft | 326 kts | 85° |
| 2026-05-01 11:47 | 52.34689 | 20.97366 | 12103 ft | 329 kts | 85° |
| 2026-05-01 11:47 | 52.34657 | 21.01068 | 12810 ft | 331 kts | 85° |
| 2026-05-01 11:48 | 52.34629 | 21.04894 | 13541 ft | 333 kts | 85° |
| 2026-05-01 11:48 | 52.34678 | 21.08625 | 14227 ft | 331 kts | 78° |
| 2026-05-01 11:48 | 52.35114 | 21.12306 | 14852 ft | 330 kts | 72° |
| 2026-05-01 11:48 | 52.35641 | 21.15974 | 15482 ft | 332 kts | 72° |
| 2026-05-01 11:49 | 52.36169 | 21.19663 | 16099 ft | 335 kts | 72° |
| 2026-05-01 11:49 | 52.36699 | 21.23388 | 16740 ft | 338 kts | 72° |
| 2026-05-01 11:49 | 52.37237 | 21.27196 | 17384 ft | 340 kts | 72° |
| 2026-05-01 11:49 | 52.37747 | 21.30944 | 18006 ft | 345 kts | 75° |
| 2026-05-01 11:50 | 52.37921 | 21.34910 | 18622 ft | 354 kts | 86° |
| 2026-05-01 11:50 | 52.37667 | 21.38959 | 19173 ft | 360 kts | 90° |
| 2026-05-01 11:50 | 52.37350 | 21.43045 | 19736 ft | 363 kts | 90° |
| 2026-05-01 11:50 | 52.37033 | 21.47149 | 20283 ft | 365 kts | 90° |
| 2026-05-01 11:51 | 52.36716 | 21.51279 | 20853 ft | 367 kts | 90° |
| 2026-05-01 11:51 | 52.36394 | 21.55440 | 21397 ft | 370 kts | 90° |
| 2026-05-01 11:51 | 52.36070 | 21.59624 | 21952 ft | 372 kts | 90° |
| 2026-05-01 11:51 | 52.35741 | 21.63837 | 22498 ft | 374 kts | 90° |
| 2026-05-01 11:52 | 52.35409 | 21.68073 | 23035 ft | 377 kts | 90° |
| 2026-05-01 11:52 | 52.35074 | 21.72336 | 23546 ft | 379 kts | 90° |
| 2026-05-01 11:52 | 52.34736 | 21.76626 | 24019 ft | 382 kts | 90° |
| 2026-05-01 11:52 | 52.34391 | 21.80950 | 24471 ft | 384 kts | 91° |
| 2026-05-01 11:53 | 52.34040 | 21.85289 | 24903 ft | 386 kts | 90° |
| 2026-05-01 11:53 | 52.33691 | 21.89641 | 25328 ft | 387 kts | 90° |
| 2026-05-01 11:53 | 52.33358 | 21.94018 | 25733 ft | 388 kts | 89° |
| 2026-05-01 11:53 | 52.33069 | 21.98410 | 26150 ft | 390 kts | 89° |
| 2026-05-01 11:54 | 52.32814 | 22.02822 | 26551 ft | 390 kts | 87° |
| 2026-05-01 11:54 | 52.32953 | 22.07194 | 26927 ft | 381 kts | 73° |
| 2026-05-01 11:54 | 52.33744 | 22.11283 | 27313 ft | 376 kts | 61° |
| 2026-05-01 11:54 | 52.35100 | 22.14901 | 27682 ft | 373 kts | 49° |
| 2026-05-01 11:55 | 52.36937 | 22.17877 | 28047 ft | 373 kts | 37° |
| 2026-05-01 11:55 | 52.39174 | 22.20047 | 28409 ft | 377 kts | 25° |
| 2026-05-01 11:55 | 52.41646 | 22.21514 | 28797 ft | 379 kts | 21° |
| 2026-05-01 11:55 | 52.44146 | 22.22936 | 29171 ft | 381 kts | 21° |
| 2026-05-01 11:56 | 52.46652 | 22.24360 | 29530 ft | 383 kts | 21° |
| 2026-05-01 11:56 | 52.49174 | 22.25797 | 29885 ft | 384 kts | 21° |
| 2026-05-01 11:56 | 52.51703 | 22.27246 | 30242 ft | 386 kts | 21° |
| 2026-05-01 11:56 | 52.54250 | 22.28707 | 30565 ft | 388 kts | 21° |
| 2026-05-01 11:57 | 52.56809 | 22.30172 | 30861 ft | 390 kts | 21° |
| 2026-05-01 11:57 | 52.59379 | 22.31646 | 31152 ft | 392 kts | 21° |
| 2026-05-01 11:57 | 52.61957 | 22.33130 | 31505 ft | 392 kts | 21° |
| 2026-05-01 11:57 | 52.64530 | 22.34609 | 31919 ft | 391 kts | 21° |
| 2026-05-01 11:58 | 52.67096 | 22.36087 | 32320 ft | 390 kts | 21° |
| 2026-05-01 11:58 | 52.69621 | 22.37547 | 32706 ft | 389 kts | 21° |
| 2026-05-01 11:58 | 52.74725 | 22.40507 | 33466 ft | 388 kts | 20° |
| 2026-05-01 11:59 | 52.77282 | 22.41924 | 33837 ft | 388 kts | 17° |
| 2026-05-01 11:59 | 52.79915 | 22.42915 | 34196 ft | 388 kts | 14° |
| 2026-05-01 11:59 | 52.82556 | 22.43862 | 34520 ft | 388 kts | 14° |
| 2026-05-01 12:00 | 52.87824 | 22.45751 | 35085 ft | 388 kts | 14° |
| 2026-05-01 12:00 | 52.90462 | 22.46699 | 35356 ft | 388 kts | 14° |
| 2026-05-01 12:00 | 52.95745 | 22.48611 | 35893 ft | 389 kts | 14° |
| 2026-05-01 12:01 | 52.98388 | 22.49572 | 36159 ft | 389 kts | 14° |
| 2026-05-01 12:01 | 53.01027 | 22.50534 | 36422 ft | 389 kts | 14° |
| 2026-05-01 12:01 | 53.03680 | 22.51502 | 36678 ft | 390 kts | 14° |
| 2026-05-01 12:01 | 53.06330 | 22.52466 | 36925 ft | 390 kts | 14° |
| 2026-05-01 12:02 | 53.08984 | 22.53432 | 37164 ft | 390 kts | 14° |
| 2026-05-01 12:02 | 53.11642 | 22.54400 | 37306 ft | 391 kts | 14° |
| 2026-05-01 12:02 | 53.14298 | 22.55369 | 37315 ft | 391 kts | 14° |
| 2026-05-01 12:03 | 53.19609 | 22.57313 | 37313 ft | 391 kts | 14° |
| 2026-05-01 12:03 | 53.24920 | 22.59263 | 37315 ft | 391 kts | 14° |
| 2026-05-01 12:04 | 53.30228 | 22.61225 | 37297 ft | 391 kts | 13° |
| 2026-05-01 12:04 | 53.35560 | 22.63192 | 37322 ft | 393 kts | 13° |
| 2026-05-01 12:05 | 53.40902 | 22.65167 | 37327 ft | 393 kts | 13° |
| 2026-05-01 12:05 | 53.48924 | 22.68150 | 37332 ft | 394 kts | 13° |
| 2026-05-01 12:06 | 53.54281 | 22.70139 | 37336 ft | 394 kts | 13° |
| 2026-05-01 12:06 | 53.59639 | 22.72140 | 37339 ft | 394 kts | 13° |
| 2026-05-01 12:07 | 53.64999 | 22.74148 | 37344 ft | 395 kts | 13° |
| 2026-05-01 12:07 | 53.70358 | 22.76159 | 37343 ft | 395 kts | 13° |
| 2026-05-01 12:08 | 53.75684 | 22.78163 | 37342 ft | 395 kts | 13° |
| 2026-05-01 12:08 | 53.81039 | 22.80182 | 37341 ft | 394 kts | 13° |
| 2026-05-01 12:09 | 53.86393 | 22.82200 | 37337 ft | 394 kts | 13° |
| 2026-05-01 12:09 | 53.91748 | 22.84222 | 37337 ft | 394 kts | 13° |
| 2026-05-01 12:10 | 53.99774 | 22.87271 | 37337 ft | 394 kts | 13° |
| 2026-05-01 12:11 | 54.07758 | 22.90546 | 37336 ft | 393 kts | 21° |
| 2026-05-01 12:11 | 54.12851 | 22.93943 | 37330 ft | 393 kts | 21° |
| 2026-05-01 12:12 | 54.17942 | 22.97339 | 37330 ft | 393 kts | 21° |
| 2026-05-01 12:12 | 54.23037 | 23.00739 | 37331 ft | 393 kts | 21° |
| 2026-05-01 12:13 | 54.28131 | 23.04158 | 37330 ft | 393 kts | 21° |
| 2026-05-01 12:13 | 54.33372 | 23.06765 | 37329 ft | 394 kts | 11° |
| 2026-05-01 12:14 | 54.38756 | 23.08477 | 37341 ft | 394 kts | 12° |
| 2026-05-01 12:14 | 54.44140 | 23.10210 | 37336 ft | 394 kts | 12° |
| 2026-05-01 12:15 | 54.49524 | 23.11949 | 37335 ft | 394 kts | 12° |
| 2026-05-01 12:15 | 54.54914 | 23.13684 | 37298 ft | 394 kts | 11° |
| 2026-05-01 12:16 | 54.60304 | 23.15435 | 37307 ft | 395 kts | 11° |
| 2026-05-01 12:16 | 54.65705 | 23.17193 | 37321 ft | 395 kts | 11° |
| 2026-05-01 12:17 | 54.71110 | 23.18949 | 37326 ft | 395 kts | 11° |
| 2026-05-01 12:17 | 54.76512 | 23.20706 | 37328 ft | 395 kts | 11° |
| 2026-05-01 12:18 | 54.81915 | 23.22483 | 37325 ft | 395 kts | 12° |
| 2026-05-01 12:18 | 54.87318 | 23.24280 | 37331 ft | 395 kts | 11° |
| 2026-05-01 12:19 | 54.92723 | 23.26068 | 37325 ft | 395 kts | 11° |
| 2026-05-01 12:19 | 54.98094 | 23.27834 | 37321 ft | 396 kts | 11° |
| 2026-05-01 12:20 | 55.03506 | 23.29618 | 37320 ft | 396 kts | 11° |
| 2026-05-01 12:20 | 55.08912 | 23.31424 | 37317 ft | 396 kts | 11° |
| 2026-05-01 12:21 | 55.14314 | 23.33232 | 37312 ft | 395 kts | 11° |
| 2026-05-01 12:21 | 55.19720 | 23.35034 | 37312 ft | 395 kts | 11° |
| 2026-05-01 12:22 | 55.24253 | 23.36541 | 37310 ft | 396 kts | 11° |
| 2026-05-01 12:22 | 55.30534 | 23.38657 | 37309 ft | 396 kts | 11° |
| 2026-05-01 12:23 | 55.35947 | 23.40480 | 37307 ft | 396 kts | 11° |
| 2026-05-01 12:23 | 55.40483 | 23.42006 | 37315 ft | 396 kts | 11° |
| 2026-05-01 12:24 | 55.45895 | 23.43839 | 37308 ft | 396 kts | 11° |
| 2026-05-01 12:24 | 55.51308 | 23.45689 | 37307 ft | 396 kts | 11° |
| 2026-05-01 12:25 | 55.59396 | 23.48445 | 37281 ft | 397 kts | 11° |
| 2026-05-01 12:26 | 55.64822 | 23.50305 | 37284 ft | 398 kts | 11° |
| 2026-05-01 12:26 | 55.72977 | 23.53104 | 37295 ft | 398 kts | 11° |
| 2026-05-01 12:27 | 55.81142 | 23.55916 | 37297 ft | 398 kts | 11° |
| 2026-05-01 12:28 | 55.89303 | 23.58752 | 37296 ft | 398 kts | 11° |
| 2026-05-01 12:29 | 55.97461 | 23.61585 | 37297 ft | 398 kts | 11° |
| 2026-05-01 12:29 | 56.05623 | 23.64434 | 37297 ft | 399 kts | 11° |
| 2026-05-01 12:30 | 56.13793 | 23.67303 | 37294 ft | 399 kts | 11° |
| 2026-05-01 12:31 | 56.19233 | 23.69223 | 37298 ft | 399 kts | 11° |
| 2026-05-01 12:31 | 56.24681 | 23.71142 | 37292 ft | 399 kts | 11° |
| 2026-05-01 12:32 | 56.30127 | 23.73069 | 37286 ft | 399 kts | 11° |
| 2026-05-01 12:32 | 56.38295 | 23.75983 | 37286 ft | 399 kts | 11° |
| 2026-05-01 12:33 | 56.43723 | 23.78100 | 37286 ft | 399 kts | 12° |
| 2026-05-01 12:33 | 56.49147 | 23.80303 | 37287 ft | 399 kts | 12° |
| 2026-05-01 12:34 | 56.54569 | 23.82494 | 37285 ft | 399 kts | 12° |
| 2026-05-01 12:34 | 56.60002 | 23.84667 | 37280 ft | 399 kts | 12° |
| 2026-05-01 12:35 | 56.61800 | 23.85360 | 37262 ft | 399 kts | 11° |
| 2026-05-01 12:36 | 56.76943 | 23.90876 | 37283 ft | 400 kts | 11° |
| 2026-05-01 12:36 | 56.82398 | 23.92894 | 37288 ft | 400 kts | 11° |
| 2026-05-01 12:37 | 56.87853 | 23.94923 | 37296 ft | 400 kts | 11° |
| 2026-05-01 12:37 | 56.93311 | 23.96966 | 37296 ft | 400 kts | 10° |
| 2026-05-01 12:38 | 56.98784 | 23.98831 | 37288 ft | 400 kts | 9° |
| 2026-05-01 12:38 | 57.03375 | 24.00316 | 37293 ft | 400 kts | 9° |
| 2026-05-01 12:39 | 57.07004 | 24.01501 | 37289 ft | 400 kts | 9° |
| 2026-05-01 12:39 | 57.14485 | 24.03989 | 37284 ft | 400 kts | 9° |
| 2026-05-01 12:40 | 57.19958 | 24.05846 | 37285 ft | 400 kts | 9° |
| 2026-05-01 12:40 | 57.25435 | 24.07698 | 37288 ft | 400 kts | 9° |
| 2026-05-01 12:41 | 57.30909 | 24.09546 | 37293 ft | 400 kts | 9° |
| 2026-05-01 12:41 | 57.36379 | 24.11403 | 37290 ft | 400 kts | 9° |
| 2026-05-01 12:42 | 57.41856 | 24.13273 | 37286 ft | 400 kts | 9° |
| 2026-05-01 12:42 | 57.47332 | 24.15151 | 37285 ft | 400 kts | 9° |
| 2026-05-01 12:43 | 57.52806 | 24.17040 | 37283 ft | 400 kts | 9° |
| 2026-05-01 12:43 | 57.58284 | 24.18923 | 37292 ft | 401 kts | 9° |
| 2026-05-01 12:44 | 57.63769 | 24.20811 | 37286 ft | 401 kts | 9° |
| 2026-05-01 12:45 | 57.74755 | 24.24612 | 37277 ft | 402 kts | 9° |
| 2026-05-01 12:45 | 57.80255 | 24.26528 | 37275 ft | 402 kts | 9° |
| 2026-05-01 12:46 | 57.85760 | 24.28468 | 37264 ft | 402 kts | 9° |
| 2026-05-01 12:46 | 57.88498 | 24.29433 | 36838 ft | 400 kts | 9° |
| 2026-05-01 12:46 | 57.91230 | 24.30394 | 36272 ft | 399 kts | 9° |
| 2026-05-01 12:47 | 57.93960 | 24.31335 | 35709 ft | 399 kts | 9° |
| 2026-05-01 12:47 | 57.96692 | 24.32262 | 35203 ft | 397 kts | 8° |
| 2026-05-01 12:47 | 57.99397 | 24.33172 | 34799 ft | 393 kts | 8° |
| 2026-05-01 12:47 | 58.02072 | 24.34076 | 34389 ft | 389 kts | 8° |
| 2026-05-01 12:48 | 58.04725 | 24.34983 | 33925 ft | 385 kts | 8° |
| 2026-05-01 12:48 | 58.07345 | 24.35887 | 33432 ft | 381 kts | 8° |
| 2026-05-01 12:48 | 58.09941 | 24.36785 | 32935 ft | 378 kts | 9° |
| 2026-05-01 12:48 | 58.12522 | 24.37682 | 32455 ft | 375 kts | 8° |
| 2026-05-01 12:49 | 58.15080 | 24.38574 | 31950 ft | 372 kts | 8° |
| 2026-05-01 12:49 | 58.17617 | 24.39456 | 31448 ft | 369 kts | 8° |
| 2026-05-01 12:49 | 58.20135 | 24.40329 | 30974 ft | 367 kts | 8° |
| 2026-05-01 12:49 | 58.22637 | 24.41194 | 30507 ft | 364 kts | 8° |
| 2026-05-01 12:50 | 58.25119 | 24.42051 | 30000 ft | 361 kts | 8° |
| 2026-05-01 12:50 | 58.27585 | 24.42905 | 29465 ft | 359 kts | 8° |
| 2026-05-01 12:50 | 58.30029 | 24.43759 | 28959 ft | 356 kts | 8° |
| 2026-05-01 12:50 | 58.32454 | 24.44612 | 28463 ft | 353 kts | 8° |
| 2026-05-01 12:51 | 58.34860 | 24.45458 | 27990 ft | 350 kts | 8° |
| 2026-05-01 12:51 | 58.37218 | 24.46287 | 27533 ft | 348 kts | 8° |
| 2026-05-01 12:51 | 58.41950 | 24.47950 | 26660 ft | 344 kts | 8° |
| 2026-05-01 12:52 | 58.44295 | 24.48774 | 26244 ft | 342 kts | 8° |
| 2026-05-01 12:52 | 58.48954 | 24.50417 | 25403 ft | 338 kts | 8° |
| 2026-05-01 12:52 | 58.51262 | 24.51234 | 24984 ft | 336 kts | 8° |
| 2026-05-01 12:53 | 58.55740 | 24.52821 | 24170 ft | 332 kts | 8° |
| 2026-05-01 12:53 | 58.58004 | 24.53626 | 23751 ft | 331 kts | 8° |
| 2026-05-01 12:53 | 58.60262 | 24.54430 | 23268 ft | 328 kts | 8° |
| 2026-05-01 12:54 | 58.62503 | 24.55226 | 22784 ft | 326 kts | 8° |
| 2026-05-01 12:54 | 58.66940 | 24.56799 | 21776 ft | 323 kts | 7° |
| 2026-05-01 12:54 | 58.69143 | 24.57591 | 21316 ft | 321 kts | 7° |
| 2026-05-01 12:55 | 58.73420 | 24.59923 | 20420 ft | 323 kts | 23° |
| 2026-05-01 12:55 | 58.75390 | 24.62009 | 19972 ft | 322 kts | 24° |
| 2026-05-01 12:55 | 58.77344 | 24.64085 | 19539 ft | 320 kts | 24° |
| 2026-05-01 12:56 | 58.79289 | 24.66144 | 19115 ft | 318 kts | 24° |
| 2026-05-01 12:56 | 58.81223 | 24.68186 | 18694 ft | 316 kts | 24° |
| 2026-05-01 12:56 | 58.83141 | 24.70212 | 18248 ft | 314 kts | 24° |
| 2026-05-01 12:56 | 58.85048 | 24.72228 | 17770 ft | 312 kts | 24° |
| 2026-05-01 12:57 | 58.86944 | 24.74237 | 17308 ft | 310 kts | 24° |
| 2026-05-01 12:57 | 58.90708 | 24.78241 | 16381 ft | 307 kts | 24° |
| 2026-05-01 12:57 | 58.92577 | 24.80237 | 15925 ft | 306 kts | 24° |
| 2026-05-01 12:58 | 58.94438 | 24.82230 | 15499 ft | 305 kts | 25° |
| 2026-05-01 12:58 | 58.96293 | 24.84214 | 15044 ft | 305 kts | 25° |
| 2026-05-01 12:58 | 58.98148 | 24.86198 | 14615 ft | 304 kts | 25° |
| 2026-05-01 12:59 | 59.01836 | 24.90149 | 13772 ft | 302 kts | 25° |
| 2026-05-01 12:59 | 59.03668 | 24.92117 | 13320 ft | 300 kts | 25° |
| 2026-05-01 12:59 | 59.07305 | 24.96034 | 12457 ft | 297 kts | 25° |
| 2026-05-01 13:00 | 59.10902 | 24.99911 | 11692 ft | 292 kts | 25° |
| 2026-05-01 13:00 | 59.12645 | 25.01796 | 11537 ft | 282 kts | 25° |
| 2026-05-01 13:01 | 59.16034 | 25.05467 | 10877 ft | 277 kts | 25° |
| 2026-05-01 13:01 | 59.17714 | 25.07289 | 10520 ft | 276 kts | 25° |
| 2026-05-01 13:01 | 59.21059 | 25.10916 | 9795 ft | 274 kts | 26° |
| 2026-05-01 13:02 | 59.22681 | 25.12681 | 9181 ft | 269 kts | 26° |
| 2026-05-01 13:07 | 59.41251 | 25.02735 | 1786 ft | 149 kts | 271° |
| 2026-05-01 13:07 | 59.41261 | 25.00705 | 1610 ft | 148 kts | 271° |
| 2026-05-01 13:07 | 59.41269 | 24.98776 | 1410 ft | 137 kts | 270° |
| 2026-05-01 13:08 | 59.41275 | 24.96940 | 1223 ft | 133 kts | 270° |
| 2026-05-01 13:08 | 59.41283 | 24.95141 | 1021 ft | 131 kts | 272° |
| 2026-05-01 13:08 | 59.41297 | 24.93359 | 852 ft | 131 kts | 272° |
| 2026-05-01 13:08 | 59.41306 | 24.91574 | 682 ft | 130 kts | 271° |
| 2026-05-01 13:09 | 59.41312 | 24.89804 | 492 ft | 131 kts | 272° |
| 2026-05-01 13:09 | 59.41317 | 24.88033 | 330 ft | 129 kts | 271° |
| 2026-05-01 13:09 | 59.41326 | 24.86271 | 179 ft | 128 kts | 271° |
| 2026-05-01 13:09 | 59.41345 | 24.84575 | 231 ft | 131 kts | 273° |
| 2026-05-01 13:10 | 59.41389 | 24.82772 | 963 ft | 135 kts | 274° |
| 2026-05-01 13:10 | 59.41422 | 24.80957 | 1706 ft | 138 kts | 271° |
| 2026-05-01 13:10 | 59.41463 | 24.78940 | 1999 ft | 158 kts | 272° |
| 2026-05-01 13:10 | 59.41512 | 24.76630 | 2201 ft | 181 kts | 272° |
| 2026-05-01 13:11 | 59.41557 | 24.74013 | 2522 ft | 205 kts | 272° |
| 2026-05-01 13:11 | 59.41636 | 24.71163 | 2937 ft | 213 kts | 280° |
| 2026-05-01 13:11 | 59.42273 | 24.68600 | 2999 ft | 213 kts | 314° |
| 2026-05-01 13:11 | 59.43562 | 24.67208 | 3011 ft | 215 kts | 349° |
| 2026-05-01 13:12 | 59.45034 | 24.67527 | 3018 ft | 219 kts | 21° |
| 2026-05-01 13:12 | 59.46248 | 24.69361 | 3011 ft | 226 kts | 52° |
| 2026-05-01 13:12 | 59.46944 | 24.72157 | 3021 ft | 230 kts | 68° |
| 2026-05-01 13:12 | 59.47447 | 24.75173 | 3014 ft | 235 kts | 70° |
| 2026-05-01 13:13 | 59.47955 | 24.78240 | 3015 ft | 236 kts | 70° |
| 2026-05-01 13:13 | 59.48461 | 24.81300 | 3013 ft | 235 kts | 70° |
| 2026-05-01 13:13 | 59.48964 | 24.84354 | 3011 ft | 235 kts | 70° |
| 2026-05-01 13:13 | 59.49464 | 24.87416 | 3006 ft | 235 kts | 70° |
| 2026-05-01 13:14 | 59.49965 | 24.90484 | 3007 ft | 234 kts | 70° |
| 2026-05-01 13:14 | 59.50466 | 24.93523 | 3010 ft | 234 kts | 70° |
| 2026-05-01 13:14 | 59.50964 | 24.96579 | 3005 ft | 235 kts | 70° |
| 2026-05-01 13:14 | 59.51458 | 24.99643 | 3011 ft | 234 kts | 70° |
| 2026-05-01 13:15 | 59.51949 | 25.02698 | 3016 ft | 233 kts | 70° |
| 2026-05-01 13:15 | 59.52442 | 25.05740 | 3005 ft | 233 kts | 70° |
| 2026-05-01 13:15 | 59.52930 | 25.08790 | 3007 ft | 234 kts | 70° |
| 2026-05-01 13:15 | 59.53421 | 25.11842 | 3004 ft | 233 kts | 70° |
| 2026-05-01 13:16 | 59.53912 | 25.14890 | 3005 ft | 234 kts | 70° |
| 2026-05-01 13:16 | 59.54392 | 25.17950 | 2997 ft | 234 kts | 74° |
| 2026-05-01 13:16 | 59.54379 | 25.21135 | 3001 ft | 237 kts | 108° |
| 2026-05-01 13:17 | 59.50648 | 25.26019 | 2999 ft | 227 kts | 191° |
| 2026-05-01 13:17 | 59.49184 | 25.25006 | 3008 ft | 223 kts | 212° |
| 2026-05-01 13:18 | 59.46462 | 25.22076 | 2997 ft | 216 kts | 212° |
| 2026-05-01 13:18 | 59.45165 | 25.20700 | 3001 ft | 208 kts | 212° |
| 2026-05-01 13:18 | 59.43896 | 25.19355 | 3002 ft | 206 kts | 211° |
| 2026-05-01 13:18 | 59.42691 | 25.17875 | 2995 ft | 202 kts | 225° |
| 2026-05-01 13:19 | 59.41798 | 25.15792 | 3013 ft | 198 kts | 243° |
| 2026-05-01 13:19 | 59.41320 | 25.13393 | 3010 ft | 179 kts | 262° |
| 2026-05-01 13:19 | 59.41231 | 25.08662 | 2402 ft | 168 kts | 272° |
| 2026-05-01 13:20 | 59.41237 | 25.06399 | 2166 ft | 164 kts | 271° |
| 2026-05-01 13:20 | 59.41243 | 25.04922 | 2014 ft | 162 kts | 271° |
| 2026-05-01 13:20 | 59.41252 | 25.02797 | 1786 ft | 152 kts | 271° |
| 2026-05-01 13:21 | 59.41269 | 24.98697 | 1412 ft | 143 kts | 271° |
| 2026-05-01 13:21 | 59.41277 | 24.96778 | 1211 ft | 137 kts | 271° |
| 2026-05-01 13:21 | 59.41285 | 24.94939 | 1018 ft | 132 kts | 271° |
| 2026-05-01 13:21 | 59.41293 | 24.93157 | 846 ft | 130 kts | 272° |
| 2026-05-01 13:22 | 59.41302 | 24.91391 | 652 ft | 129 kts | 272° |
| 2026-05-01 13:22 | 59.41309 | 24.89641 | 505 ft | 129 kts | 272° |
| 2026-05-01 13:22 | 59.41312 | 24.87872 | 307 ft | 129 kts | 272° |
| 2026-05-01 13:22 | 59.41317 | 24.86123 | 168 ft | 123 kts | 271° |
| 2026-05-01 13:23 | 59.41321 | 24.84680 | 161 ft | 88 kts | 270° |
| 2026-05-01 13:23 | 59.41325 | 24.83683 | 164 ft | 57 kts | 270° |
| 2026-05-01 13:23 | 59.41326 | 24.83098 | 161 ft | 35 kts | 271° |
| 2026-05-01 13:23 | 59.41364 | 24.82678 | 160 ft | 22 kts | 292° |
| 2026-05-01 13:24 | 59.41427 | 24.82446 | 161 ft | 15 kts | 300° |
| 2026-05-01 13:24 | 59.41466 | 24.82318 | 162 ft | 10 kts | 301° |
| 2026-05-01 13:24 | 59.41479 | 24.82274 | 162 ft | 0 kts | 301° |
| 2026-05-01 13:25 | 59.41490 | 24.82232 | 162 ft | 5 kts | 292° |
| 2026-05-01 13:25 | 59.41501 | 24.82133 | 162 ft | 10 kts | 277° |
| 2026-05-01 13:25 | 59.41503 | 24.81974 | 162 ft | 14 kts | 271° |
| 2026-05-01 13:25 | 59.41505 | 24.81760 | 162 ft | 18 kts | 271° |
| 2026-05-01 13:26 | 59.41505 | 24.81489 | 162 ft | 22 kts | 269° |
| 2026-05-01 13:26 | 59.41505 | 24.81162 | 162 ft | 25 kts | 270° |
| 2026-05-01 13:26 | 59.41506 | 24.80865 | 162 ft | 21 kts | 270° |
| 2026-05-01 13:26 | 59.41506 | 24.80609 | 147 ft | 19 kts | 271° |
| 2026-05-01 13:27 | 59.41562 | 24.80506 | 162 ft | 12 kts | 3° |
| 2026-05-01 13:27 | 59.41658 | 24.80514 | 162 ft | 12 kts | 1° |
| 2026-05-01 13:27 | 59.41749 | 24.80235 | 162 ft | 16 kts | 272° |
| 2026-05-01 13:28 | 59.41710 | 24.80052 | 162 ft | 7 kts | 182° |
| 2026-05-01 13:28 | 59.41691 | 24.80051 | 162 ft | 1 kts | 181° |
| 2026-05-01 13:29 | 59.41690 | 24.80051 | 162 ft | 0 kts | 181° |